createdAt,value
2023-05-10T00:01:26.953Z,87.99
2023-05-10T00:03:53.579Z,88.05
2023-05-10T00:06:20.287Z,88.05
2023-05-10T00:08:46.821Z,88.17
2023-05-10T00:11:13.343Z,88.13
2023-05-10T00:13:39.912Z,88.11
2023-05-10T00:16:06.579Z,87.40
2023-05-10T00:18:33.120Z,87.73
2023-05-10T00:20:59.727Z,87.40
2023-05-10T00:23:26.253Z,88.15
2023-05-10T00:25:52.775Z,87.68
2023-05-10T00:28:19.363Z,87.67
2023-05-10T00:30:45.949Z,87.51
2023-05-10T00:33:12.585Z,86.97
2023-05-10T00:35:39.280Z,87.33
2023-05-10T00:38:05.812Z,87.33
2023-05-10T00:40:32.392Z,87.24
2023-05-10T00:43:00.492Z,87.18
2023-05-10T00:45:27.145Z,87.56
2023-05-10T00:47:56.186Z,86.88
2023-05-10T00:50:24.410Z,86.83
2023-05-10T00:52:51.372Z,86.98
2023-05-10T00:55:18.916Z,87.32
2023-05-10T00:57:45.559Z,86.97
2023-05-10T01:00:13.873Z,86.69
2023-05-10T01:02:41.624Z,87.07
2023-05-10T01:05:08.419Z,86.94
2023-05-10T01:07:34.999Z,87.38
2023-05-10T01:10:01.633Z,87.25
2023-05-10T01:12:28.345Z,87.31
2023-05-10T01:14:55.900Z,87.35
2023-05-10T01:17:23.531Z,87.67
2023-05-10T01:19:50.780Z,87.07
2023-05-10T01:22:58.606Z,87.04
2023-05-10T01:25:53.260Z,87.29
2023-05-10T01:28:44.652Z,87.32
2023-05-10T01:31:32.655Z,87.67
2023-05-10T01:34:13.121Z,87.46
2023-05-10T01:36:49.322Z,87.31
2023-05-10T01:39:22.182Z,87.22
2023-05-10T01:42:04.529Z,87.21
2023-05-10T01:44:38.716Z,87.09
2023-05-10T01:47:18.381Z,86.68
2023-05-10T01:49:51.635Z,86.47
2023-05-10T01:52:21.205Z,86.03
2023-05-10T01:54:56.689Z,86.03
2023-05-10T01:57:26.971Z,85.89
2023-05-10T01:59:54.628Z,86.37
2023-05-10T02:02:23.270Z,85.99
2023-05-10T02:04:51.705Z,86.89
2023-05-10T02:07:19.084Z,85.90
2023-05-10T02:09:49.702Z,86.23
2023-05-10T02:12:17.183Z,85.43
2023-05-10T02:14:45.137Z,85.88
2023-05-10T02:17:12.869Z,85.06
2023-05-10T02:19:41.924Z,85.40
2023-05-10T02:22:09.984Z,85.21
2023-05-10T02:24:38.126Z,84.90
2023-05-10T02:27:05.311Z,84.59
2023-05-10T02:29:33.404Z,84.83
2023-05-10T02:32:01.018Z,84.76
2023-05-10T02:34:28.739Z,84.64
2023-05-10T02:36:57.108Z,84.83
2023-05-10T02:39:24.838Z,84.61
2023-05-10T02:41:53.323Z,84.80
2023-05-10T02:44:21.092Z,84.66
2023-05-10T02:46:48.079Z,84.34
2023-05-10T02:49:15.228Z,84.66
2023-05-10T02:52:00.994Z,84.93
2023-05-10T02:54:32.848Z,85.27
2023-05-10T02:57:03.941Z,84.48
2023-05-10T02:59:30.549Z,84.57
2023-05-10T03:01:57.274Z,85.18
2023-05-10T03:04:23.827Z,85.37
2023-05-10T03:06:51.236Z,84.99
2023-05-10T03:09:17.876Z,85.22
2023-05-10T03:12:14.783Z,85.53
2023-05-10T03:15:01.666Z,86.03
2023-05-10T03:17:41.059Z,85.37
2023-05-10T03:20:11.344Z,86.11
2023-05-10T03:22:44.347Z,87.02
2023-05-10T03:25:12.571Z,86.50
2023-05-10T03:27:42.763Z,86.86
2023-05-10T03:30:12.783Z,87.15
2023-05-10T03:32:40.153Z,87.68
2023-05-10T03:35:11.280Z,87.30
2023-05-10T03:37:38.014Z,87.97
2023-05-10T03:40:05.444Z,87.21
2023-05-10T03:42:32.150Z,87.91
2023-05-10T03:44:58.735Z,87.48
2023-05-10T03:47:25.293Z,88.09
2023-05-10T03:49:51.857Z,88.05
2023-05-10T03:52:19.169Z,87.61
2023-05-10T03:54:45.697Z,88.11
2023-05-10T03:57:12.244Z,88.63
2023-05-10T03:59:38.841Z,88.27
2023-05-10T04:02:05.461Z,87.71
2023-05-10T04:04:31.972Z,88.10
2023-05-10T04:06:58.722Z,87.58
2023-05-10T04:09:25.294Z,87.65
2023-05-10T04:11:52.172Z,87.26
2023-05-10T04:14:18.800Z,87.54
2023-05-10T04:16:45.902Z,86.45
2023-05-10T04:19:12.652Z,86.36
2023-05-10T04:21:39.223Z,85.81
2023-05-10T04:24:06.062Z,86.11
2023-05-10T04:26:32.593Z,86.04
2023-05-10T04:28:59.116Z,86.32
2023-05-10T04:31:25.833Z,85.93
2023-05-10T04:33:52.489Z,86.61
2023-05-10T04:36:19.262Z,86.22
2023-05-10T04:38:45.824Z,85.96
2023-05-10T04:41:12.512Z,86.18
2023-05-10T04:43:39.497Z,85.74
2023-05-10T04:46:07.135Z,85.89
2023-05-10T04:48:33.855Z,85.85
2023-05-10T04:51:00.694Z,86.14
2023-05-10T04:53:27.363Z,84.72
2023-05-10T04:55:53.942Z,84.49
2023-05-10T04:58:20.466Z,82.93
2023-05-10T05:00:47.010Z,81.98
2023-05-10T05:03:13.703Z,82.33
2023-05-10T05:05:40.302Z,81.16
2023-05-10T05:08:07.115Z,81.18
2023-05-10T05:10:33.692Z,80.43
2023-05-10T05:13:00.417Z,80.32
2023-05-10T05:15:27.081Z,80.39
2023-05-10T05:17:53.691Z,81.08
2023-05-10T05:20:20.419Z,80.72
2023-05-10T05:22:46.948Z,81.02
2023-05-10T05:25:13.709Z,82.06
2023-05-10T05:27:40.384Z,80.88
2023-05-10T05:30:08.644Z,80.81
2023-05-10T05:32:35.426Z,80.43
2023-05-10T05:35:02.022Z,80.13
2023-05-10T05:37:28.566Z,80.33
2023-05-10T05:39:56.042Z,80.28
2023-05-10T05:42:22.701Z,80.74
2023-05-10T05:44:49.299Z,80.60
2023-05-10T05:47:15.940Z,80.38
2023-05-10T05:49:42.584Z,80.34
2023-05-10T05:52:09.251Z,80.38
2023-05-10T05:54:35.989Z,79.02
2023-05-10T05:57:02.536Z,78.82
2023-05-10T05:59:29.455Z,77.55
2023-05-10T06:01:56.056Z,77.08
2023-05-10T06:04:22.822Z,77.28
2023-05-10T06:06:49.620Z,77.03
2023-05-10T06:09:16.882Z,77.53
2023-05-10T06:11:43.946Z,78.13
2023-05-10T06:14:10.749Z,77.40
2023-05-10T06:16:37.399Z,77.66
2023-05-10T06:19:04.284Z,78.14
2023-05-10T06:21:31.282Z,77.67
2023-05-10T06:23:57.990Z,77.78
2023-05-10T06:26:24.554Z,77.03
2023-05-10T06:28:51.104Z,75.66
2023-05-10T06:31:17.834Z,76.24
2023-05-10T06:33:44.429Z,75.68
2023-05-10T06:36:10.965Z,75.07
2023-05-10T06:38:37.843Z,75.29
2023-05-10T06:41:04.396Z,75.63
2023-05-10T06:43:31.154Z,75.02
2023-05-10T06:45:57.788Z,75.45
2023-05-10T06:48:24.665Z,74.59
2023-05-10T06:50:51.208Z,73.09
2023-05-10T06:53:27.311Z,72.93
2023-05-10T06:55:53.865Z,74.22
2023-05-10T06:58:20.367Z,72.26
2023-05-10T07:00:48.016Z,71.10
2023-05-10T07:03:14.723Z,71.24
2023-05-10T07:05:41.329Z,70.72
2023-05-10T07:08:08.526Z,71.13
2023-05-10T07:10:35.086Z,70.67
2023-05-10T07:13:02.464Z,70.92
2023-05-10T07:15:29.519Z,72.09
2023-05-10T07:17:56.677Z,71.95
2023-05-10T07:20:23.319Z,71.62
2023-05-10T07:22:49.998Z,71.20
2023-05-10T07:25:16.921Z,71.03
2023-05-10T07:27:43.593Z,69.75
2023-05-10T07:30:10.565Z,69.16
2023-05-10T07:32:37.509Z,69.74
2023-05-10T07:35:04.432Z,69.71
2023-05-10T07:37:31.088Z,69.49
2023-05-10T07:39:57.641Z,69.80
2023-05-10T07:42:24.580Z,69.96
2023-05-10T07:44:51.169Z,70.11
2023-05-10T07:47:17.703Z,71.26
2023-05-10T07:49:44.558Z,70.99
2023-05-10T07:52:11.183Z,70.61
2023-05-10T07:54:38.479Z,71.37
2023-05-10T07:57:04.978Z,71.51
2023-05-10T07:59:31.553Z,72.16
2023-05-10T08:01:58.072Z,72.85
2023-05-10T08:04:25.100Z,73.63
2023-05-10T08:06:51.699Z,73.47
2023-05-10T08:09:18.828Z,73.22
2023-05-10T08:11:45.443Z,72.74
2023-05-10T08:14:12.104Z,72.32
2023-05-10T08:16:38.620Z,72.66
2023-05-10T08:19:05.922Z,72.06
2023-05-10T08:21:32.914Z,72.00
2023-05-10T08:23:59.447Z,71.67
2023-05-10T08:26:26.941Z,71.36
2023-05-10T08:28:53.527Z,69.58
2023-05-10T08:31:20.298Z,68.87
2023-05-10T08:33:46.971Z,68.79
2023-05-10T08:36:15.241Z,68.78
2023-05-10T08:38:41.836Z,67.33
2023-05-10T08:41:08.651Z,66.12
2023-05-10T08:43:37.300Z,66.69
2023-05-10T08:46:06.261Z,66.58
2023-05-10T08:48:35.387Z,66.57
2023-05-10T08:51:03.797Z,66.29
2023-05-10T08:53:34.052Z,64.24
2023-05-10T08:56:02.291Z,63.33
2023-05-10T08:58:29.290Z,63.36
2023-05-10T09:00:56.970Z,63.77
2023-05-10T09:03:23.666Z,64.29
2023-05-10T09:05:50.536Z,64.24
2023-05-10T09:08:19.873Z,64.74
2023-05-10T09:10:48.593Z,65.98
2023-05-10T09:13:16.560Z,66.81
2023-05-10T09:15:45.643Z,67.03
2023-05-10T09:18:12.748Z,67.96
2023-05-10T09:20:39.404Z,67.61
2023-05-10T09:23:06.769Z,67.71
2023-05-10T09:25:36.613Z,65.86
2023-05-10T09:28:03.395Z,66.05
2023-05-10T09:30:31.714Z,65.08
2023-05-10T09:32:59.980Z,65.46
2023-05-10T09:35:29.873Z,63.97
2023-05-10T09:37:59.042Z,64.14
2023-05-10T09:40:27.078Z,64.63
2023-05-10T09:43:07.893Z,63.85
2023-05-10T09:45:38.284Z,63.86
2023-05-10T09:48:06.105Z,63.31
2023-05-10T09:50:32.820Z,63.10
2023-05-10T09:53:01.330Z,62.94
2023-05-10T09:55:50.258Z,62.44
2023-05-10T09:58:17.132Z,62.40
2023-05-10T10:00:45.759Z,62.73
2023-05-10T10:03:20.032Z,62.51
2023-05-10T10:05:48.865Z,62.31
2023-05-10T10:08:17.574Z,62.04
2023-05-10T10:10:47.596Z,60.60
2023-05-10T10:13:15.039Z,59.56
2023-05-10T10:15:44.213Z,58.97
2023-05-10T10:18:14.657Z,59.72
2023-05-10T10:20:41.748Z,58.09
2023-05-10T10:23:09.365Z,57.92
2023-05-10T10:25:36.621Z,58.39
2023-05-10T10:28:27.542Z,58.49
2023-05-10T10:30:57.481Z,57.05
2023-05-10T10:33:48.798Z,57.54
2023-05-10T10:36:16.557Z,57.24
2023-05-10T10:38:49.083Z,58.01
2023-05-10T10:41:36.120Z,56.40
2023-05-10T10:44:39.337Z,56.61
2023-05-10T10:47:26.170Z,57.42
2023-05-10T10:50:04.698Z,56.13
2023-05-10T10:52:44.445Z,55.66
2023-05-10T10:55:19.944Z,55.42
2023-05-10T10:58:01.659Z,55.69
2023-05-10T11:00:37.889Z,55.93
2023-05-10T11:03:15.747Z,55.52
2023-05-10T11:05:46.556Z,53.88
2023-05-10T11:08:30.754Z,54.41
2023-05-10T11:11:00.335Z,54.70
2023-05-10T11:13:34.212Z,54.31
2023-05-10T11:16:12.589Z,53.77
2023-05-10T11:18:39.278Z,53.56
2023-05-10T11:21:10.381Z,53.89
2023-05-10T11:23:48.933Z,52.66
2023-05-10T11:26:15.878Z,51.62
2023-05-10T11:28:45.086Z,51.91
2023-05-10T11:31:13.566Z,51.34
2023-05-10T11:33:51.702Z,51.08
2023-05-10T11:36:26.917Z,49.36
2023-05-10T11:38:53.953Z,50.53
2023-05-10T11:41:24.536Z,49.94
2023-05-10T11:43:52.631Z,50.67
2023-05-10T11:46:22.437Z,49.97
2023-05-10T11:48:54.038Z,50.38
2023-05-10T11:51:22.768Z,48.63
2023-05-10T11:53:54.442Z,50.64
2023-05-10T11:56:22.756Z,49.49
2023-05-10T11:58:57.061Z,49.21
2023-05-10T12:01:25.438Z,48.98
2023-05-10T12:03:53.573Z,49.31
2023-05-10T12:06:21.416Z,50.63
2023-05-10T12:08:53.634Z,49.52
2023-05-10T12:11:22.867Z,48.83
2023-05-10T12:13:50.834Z,47.17
2023-05-10T12:16:22.762Z,49.33
2023-05-10T12:18:52.073Z,48.75
2023-05-10T12:21:20.824Z,50.78
2023-05-10T12:23:49.810Z,49.56
2023-05-10T12:26:16.505Z,49.04
2023-05-10T12:28:43.111Z,49.43
2023-05-10T12:31:10.104Z,49.71
2023-05-10T12:33:42.461Z,49.89
2023-05-10T12:36:10.756Z,50.16
2023-05-10T12:38:45.402Z,49.73
2023-05-10T12:41:14.063Z,49.00
2023-05-10T12:43:41.238Z,49.19
2023-05-10T12:46:08.080Z,49.86
2023-05-10T12:48:35.629Z,49.33
2023-05-10T12:51:03.136Z,50.46
2023-05-10T12:53:29.645Z,51.14
2023-05-10T12:55:56.318Z,51.81
2023-05-10T12:58:34.964Z,51.06
2023-05-10T13:01:02.547Z,52.14
2023-05-10T13:03:29.120Z,52.39
2023-05-10T13:05:55.814Z,52.69
2023-05-10T13:08:22.377Z,53.48
2023-05-10T13:10:49.317Z,55.17
2023-05-10T13:13:16.585Z,54.94
2023-05-10T13:15:43.077Z,55.51
2023-05-10T13:18:09.664Z,55.70
2023-05-10T13:20:36.243Z,56.47
2023-05-10T13:23:03.606Z,57.52
2023-05-10T13:25:30.357Z,54.60
2023-05-10T13:27:56.829Z,55.58
2023-05-10T13:30:24.763Z,55.59
2023-05-10T13:32:51.537Z,53.21
2023-05-10T13:35:18.254Z,51.77
2023-05-10T13:37:44.923Z,49.63
2023-05-10T13:40:11.667Z,46.12
2023-05-10T13:42:38.479Z,47.18
2023-05-10T13:45:05.611Z,46.61
2023-05-10T13:47:32.267Z,46.11
2023-05-10T13:49:59.337Z,46.22
2023-05-10T13:52:26.138Z,46.24
2023-05-10T13:54:53.286Z,45.63
2023-05-10T13:57:19.745Z,45.51
2023-05-10T13:59:46.308Z,44.26
2023-05-10T14:02:14.179Z,42.84
2023-05-10T14:04:40.758Z,42.14
2023-05-10T14:07:07.275Z,42.39
2023-05-10T14:09:33.842Z,37.34
2023-05-10T14:12:00.403Z,36.45
2023-05-10T14:14:26.999Z,36.35
2023-05-10T14:16:53.464Z,35.38
2023-05-10T14:19:20.070Z,35.50
2023-05-10T14:21:46.635Z,35.14
2023-05-10T14:24:13.155Z,35.79
2023-05-10T14:26:39.730Z,36.33
2023-05-10T14:29:06.184Z,37.74
2023-05-10T14:31:32.898Z,40.15
2023-05-10T14:34:00.179Z,41.81
2023-05-10T14:36:26.842Z,43.47
2023-05-10T14:38:53.414Z,43.80
2023-05-10T14:41:19.900Z,43.36
2023-05-10T14:43:46.878Z,42.42
2023-05-10T14:46:13.554Z,41.13
2023-05-10T14:48:40.224Z,41.05
2023-05-10T14:51:07.460Z,39.59
2023-05-10T14:53:34.089Z,37.21
2023-05-10T14:56:02.231Z,35.83
2023-05-10T14:58:28.927Z,34.61
2023-05-10T15:00:55.453Z,34.71
2023-05-10T15:03:22.376Z,35.52
2023-05-10T15:05:49.339Z,37.44
2023-05-10T15:08:15.726Z,38.74
2023-05-10T15:10:42.572Z,39.21
2023-05-10T15:13:09.059Z,41.11
2023-05-10T15:15:35.599Z,41.79
2023-05-10T15:18:02.176Z,41.54
2023-05-10T15:20:28.884Z,39.39
2023-05-10T15:22:55.414Z,38.69
2023-05-10T15:25:22.181Z,37.44
2023-05-10T15:27:48.724Z,36.36
2023-05-10T15:30:15.417Z,36.54
2023-05-10T15:32:41.953Z,34.80
2023-05-10T15:35:10.553Z,35.04
2023-05-10T15:37:37.820Z,35.61
2023-05-10T15:40:05.134Z,36.89
2023-05-10T15:42:32.581Z,38.93
2023-05-10T15:44:59.647Z,39.95
2023-05-10T15:47:27.016Z,41.51
2023-05-10T15:49:53.604Z,42.30
2023-05-10T15:52:21.647Z,42.82
2023-05-10T15:54:48.261Z,43.35
2023-05-10T15:57:14.870Z,44.59
2023-05-10T15:59:41.697Z,45.24
2023-05-10T16:02:10.854Z,46.60
2023-05-10T16:04:37.840Z,48.01
2023-05-10T16:07:04.565Z,48.20
2023-05-10T16:09:31.082Z,48.95
2023-05-10T16:11:57.594Z,49.93
2023-05-10T16:14:24.752Z,50.12
2023-05-10T16:16:51.735Z,50.72
2023-05-10T16:19:18.500Z,51.13
2023-05-10T16:21:45.292Z,51.42
2023-05-10T16:24:11.855Z,52.08
2023-05-10T16:26:40.968Z,52.96
2023-05-10T16:29:10.919Z,54.17
2023-05-10T16:31:37.529Z,54.59
2023-05-10T16:34:04.221Z,54.63
2023-05-10T16:36:31.537Z,53.76
2023-05-10T16:38:58.432Z,53.77
2023-05-10T16:41:25.894Z,52.51
2023-05-10T16:43:52.567Z,53.15
2023-05-10T16:46:19.134Z,52.36
2023-05-10T16:48:46.010Z,52.88
2023-05-10T16:51:12.590Z,51.69
2023-05-10T16:53:39.231Z,50.43
2023-05-10T16:56:05.956Z,48.32
2023-05-10T16:58:32.457Z,45.29
2023-05-10T17:00:58.984Z,44.25
2023-05-10T17:03:26.021Z,42.49
2023-05-10T17:05:52.656Z,41.24
2023-05-10T17:08:19.271Z,41.37
2023-05-10T17:10:46.134Z,42.36
2023-05-10T17:13:12.694Z,42.27
2023-05-10T17:15:39.689Z,43.47
2023-05-10T17:18:07.533Z,44.10
2023-05-10T17:20:34.487Z,44.07
2023-05-10T17:23:02.699Z,44.91
2023-05-10T17:25:29.620Z,45.82
2023-05-10T17:27:56.155Z,47.41
2023-05-10T17:30:26.375Z,48.91
2023-05-10T17:32:54.369Z,49.52
2023-05-10T17:35:21.566Z,49.86
2023-05-10T17:37:48.217Z,50.96
2023-05-10T17:40:15.042Z,51.84
2023-05-10T17:42:41.965Z,52.28
2023-05-10T17:45:09.154Z,54.73
2023-05-10T17:47:35.789Z,54.18
2023-05-10T17:50:02.403Z,55.38
2023-05-10T17:52:31.367Z,56.18
2023-05-10T17:54:59.843Z,56.86
2023-05-10T17:57:26.442Z,57.95
2023-05-10T17:59:53.013Z,58.02
2023-05-10T18:02:19.616Z,59.00
2023-05-10T18:04:46.423Z,60.15
2023-05-10T18:07:13.083Z,60.23
2023-05-10T18:09:39.585Z,60.96
2023-05-10T18:12:06.737Z,61.48
2023-05-10T18:14:40.530Z,62.03
2023-05-10T18:17:09.127Z,63.03
2023-05-10T18:19:35.817Z,63.39
2023-05-10T18:22:02.771Z,63.48
2023-05-10T18:24:37.515Z,63.41
2023-05-10T18:27:05.887Z,63.35
2023-05-10T18:29:32.823Z,63.63
2023-05-10T18:31:59.390Z,64.35
2023-05-10T18:34:25.969Z,64.11
2023-05-10T18:36:52.792Z,64.93
2023-05-10T18:39:19.488Z,64.77
2023-05-10T18:41:46.101Z,64.91
2023-05-10T18:44:12.646Z,65.37
2023-05-10T18:46:39.511Z,65.82
2023-05-10T18:49:08.363Z,65.69
2023-05-10T18:51:35.057Z,66.18
2023-05-10T18:54:01.579Z,66.99
2023-05-10T18:56:28.254Z,67.46
2023-05-10T18:58:54.921Z,67.66
2023-05-10T19:01:21.657Z,68.50
2023-05-10T19:03:48.292Z,68.23
2023-05-10T19:06:14.877Z,68.43
2023-05-10T19:08:41.401Z,69.06
2023-05-10T19:11:07.975Z,69.44
2023-05-10T19:13:34.567Z,69.56
2023-05-10T19:16:10.581Z,69.44
2023-05-10T19:18:38.462Z,70.38
2023-05-10T19:21:09.653Z,70.43
2023-05-10T19:23:40.400Z,71.20
2023-05-10T19:26:09.332Z,71.66
2023-05-10T19:28:36.603Z,71.97
2023-05-10T19:31:03.503Z,72.24
2023-05-10T19:33:30.174Z,71.61
2023-05-10T19:35:56.720Z,72.33
2023-05-10T19:38:24.359Z,72.72
2023-05-10T19:40:57.504Z,72.50
2023-05-10T19:43:29.171Z,72.74
2023-05-10T19:45:59.277Z,73.70
2023-05-10T19:48:26.538Z,73.09
2023-05-10T19:50:53.783Z,74.09
2023-05-10T19:53:20.324Z,74.17
2023-05-10T19:55:46.990Z,73.91
2023-05-10T19:58:13.501Z,74.94
2023-05-10T20:00:40.065Z,74.62
2023-05-10T20:03:09.165Z,74.47
2023-05-10T20:05:36.126Z,74.98
2023-05-10T20:08:02.719Z,74.74
2023-05-10T20:10:29.381Z,75.73
2023-05-10T20:12:55.978Z,75.22
2023-05-10T20:15:23.474Z,75.05
2023-05-10T20:17:52.206Z,75.01
2023-05-10T20:20:20.159Z,75.36
2023-05-10T20:22:47.959Z,75.94
2023-05-10T20:25:15.236Z,76.44
2023-05-10T20:27:41.931Z,76.76
2023-05-10T20:30:10.452Z,76.81
2023-05-10T20:32:38.042Z,77.20
2023-05-10T20:35:05.698Z,76.45
2023-05-10T20:37:32.500Z,77.36
2023-05-10T20:39:59.018Z,77.47
2023-05-10T20:42:25.613Z,77.70
2023-05-10T20:44:52.237Z,77.62
2023-05-10T20:47:19.005Z,77.65
2023-05-10T20:49:45.898Z,77.05
2023-05-10T20:52:12.572Z,77.82
2023-05-10T20:54:39.112Z,77.82
2023-05-10T20:57:05.776Z,77.29
2023-05-10T20:59:32.396Z,78.07
2023-05-10T21:01:59.269Z,77.88
2023-05-10T21:04:26.036Z,77.39
2023-05-10T21:06:53.321Z,77.30
2023-05-10T21:09:19.989Z,78.30
2023-05-10T21:11:46.633Z,77.98
2023-05-10T21:14:13.261Z,77.59
2023-05-10T21:16:39.987Z,78.31
2023-05-10T21:19:07.619Z,77.79
2023-05-10T21:21:34.463Z,78.14
2023-05-10T21:24:01.213Z,78.92
2023-05-10T21:26:27.807Z,79.34
2023-05-10T21:28:54.449Z,79.85
2023-05-10T21:31:21.434Z,79.90
2023-05-10T21:33:48.057Z,79.96
2023-05-10T21:36:15.012Z,80.56
2023-05-10T21:38:44.246Z,81.07
2023-05-10T21:41:11.090Z,81.47
2023-05-10T21:43:37.721Z,81.57
2023-05-10T21:46:04.784Z,82.08
2023-05-10T21:48:31.454Z,81.74
2023-05-10T21:50:58.758Z,81.61
2023-05-10T21:53:25.368Z,82.49
2023-05-10T21:55:51.912Z,82.05
2023-05-10T21:58:18.613Z,81.78
2023-05-10T22:00:45.140Z,82.40
2023-05-10T22:03:11.829Z,82.28
2023-05-10T22:05:39.010Z,82.64
2023-05-10T22:08:06.572Z,82.72
2023-05-10T22:10:33.401Z,83.14
2023-05-10T22:13:00.321Z,83.06
2023-05-10T22:15:27.435Z,82.92
2023-05-10T22:17:54.022Z,83.39
2023-05-10T22:20:21.179Z,83.74
2023-05-10T22:22:47.951Z,83.90
2023-05-10T22:25:14.751Z,84.57
2023-05-10T22:27:41.455Z,84.34
2023-05-10T22:30:08.717Z,84.45
2023-05-10T22:32:35.241Z,84.71
2023-05-10T22:35:02.420Z,84.70
2023-05-10T22:37:28.971Z,84.64
2023-05-10T22:39:55.525Z,85.12
2023-05-10T22:42:22.131Z,85.69
2023-05-10T22:44:48.647Z,85.78
2023-05-10T22:47:16.382Z,85.36
2023-05-10T22:49:42.930Z,85.40
2023-05-10T22:52:09.783Z,85.12
2023-05-10T22:54:36.553Z,85.15
2023-05-10T22:57:03.342Z,85.70
2023-05-10T22:59:29.982Z,86.16
2023-05-10T23:01:56.578Z,86.00
2023-05-10T23:04:23.198Z,86.41
2023-05-10T23:06:49.825Z,86.29
2023-05-10T23:09:16.497Z,85.63
2023-05-10T23:11:43.253Z,85.44
2023-05-10T23:14:09.731Z,85.82
2023-05-10T23:16:36.700Z,85.88
2023-05-10T23:19:03.386Z,85.06
2023-05-10T23:21:31.972Z,85.19
2023-05-10T23:23:58.985Z,85.16
2023-05-10T23:26:25.634Z,85.46
2023-05-10T23:28:52.372Z,85.36
2023-05-10T23:31:19.012Z,85.51
2023-05-10T23:33:45.664Z,85.60
2023-05-10T23:36:12.472Z,86.07
2023-05-10T23:38:39.452Z,85.87
2023-05-10T23:41:06.219Z,85.59
2023-05-10T23:43:32.788Z,85.49
2023-05-10T23:45:59.556Z,84.75
2023-05-10T23:48:26.283Z,84.43
2023-05-10T23:50:53.349Z,84.30
2023-05-10T23:53:19.997Z,84.03
2023-05-10T23:55:46.828Z,83.96
2023-05-10T23:58:13.483Z,83.51
